sensor_id;sensor_type;location;lat;lon;timestamp;P1;durP1;ratioP1;P2;durP2;ratioP2
21636;SDS011;10980;49.596;6.142;2023-09-30T00:00:56;10.27;;;5.85;;
21636;SDS011;10980;49.596;6.142;2023-09-30T00:04:19;11.48;;;6.35;;
21636;SDS011;10980;49.596;6.142;2023-09-30T00:07:41;11.65;;;5.53;;
21636;SDS011;10980;49.596;6.142;2023-09-30T00:11:03;11.70;;;6.05;;
21636;SDS011;10980;49.596;6.142;2023-09-30T00:14:27;12.52;;;6.20;;
21636;SDS011;10980;49.596;6.142;2023-09-30T00:17:50;11.70;;;5.80;;
21636;SDS011;10980;49.596;6.142;2023-09-30T00:21:12;10.45;;;5.70;;
21636;SDS011;10980;49.596;6.142;2023-09-30T00:24:34;10.50;;;5.40;;
21636;SDS011;10980;49.596;6.142;2023-09-30T00:27:56;10.18;;;6.00;;
21636;SDS011;10980;49.596;6.142;2023-09-30T00:31:18;10.07;;;5.55;;
21636;SDS011;10980;49.596;6.142;2023-09-30T00:34:40;11.40;;;5.85;;
21636;SDS011;10980;49.596;6.142;2023-09-30T00:38:02;10.77;;;6.07;;
21636;SDS011;10980;49.596;6.142;2023-09-30T00:41:26;10.88;;;5.57;;
21636;SDS011;10980;49.596;6.142;2023-09-30T00:44:48;13.20;;;5.47;;
21636;SDS011;10980;49.596;6.142;2023-09-30T00:48:15;10.15;;;5.82;;
21636;SDS011;10980;49.596;6.142;2023-09-30T00:51:38;11.85;;;5.30;;
21636;SDS011;10980;49.596;6.142;2023-09-30T00:55:01;9.50;;;5.53;;
21636;SDS011;10980;49.596;6.142;2023-09-30T00:58:25;9.90;;;5.68;;
21636;SDS011;10980;49.596;6.142;2023-09-30T01:01:50;13.50;;;6.28;;
21636;SDS011;10980;49.596;6.142;2023-09-30T01:05:15;11.13;;;6.00;;
21636;SDS011;10980;49.596;6.142;2023-09-30T01:08:38;12.65;;;6.78;;
21636;SDS011;10980;49.596;6.142;2023-09-30T01:12:01;12.88;;;6.10;;
21636;SDS011;10980;49.596;6.142;2023-09-30T01:15:24;10.30;;;5.90;;
21636;SDS011;10980;49.596;6.142;2023-09-30T01:18:48;14.13;;;5.95;;
21636;SDS011;10980;49.596;6.142;2023-09-30T01:22:11;10.75;;;6.40;;
21636;SDS011;10980;49.596;6.142;2023-09-30T01:25:34;10.23;;;6.15;;
21636;SDS011;10980;49.596;6.142;2023-09-30T01:28:56;10.13;;;5.82;;
21636;SDS011;10980;49.596;6.142;2023-09-30T01:32:18;13.30;;;5.80;;
21636;SDS011;10980;49.596;6.142;2023-09-30T01:35:46;11.27;;;5.85;;
21636;SDS011;10980;49.596;6.142;2023-09-30T01:39:08;12.40;;;6.53;;
21636;SDS011;10980;49.596;6.142;2023-09-30T01:42:31;10.20;;;6.00;;
21636;SDS011;10980;49.596;6.142;2023-09-30T01:45:55;11.05;;;6.15;;
21636;SDS011;10980;49.596;6.142;2023-09-30T01:49:18;11.68;;;6.28;;
21636;SDS011;10980;49.596;6.142;2023-09-30T01:52:40;11.60;;;6.00;;
21636;SDS011;10980;49.596;6.142;2023-09-30T01:56:02;13.90;;;6.22;;
21636;SDS011;10980;49.596;6.142;2023-09-30T01:59:24;10.35;;;5.70;;
21636;SDS011;10980;49.596;6.142;2023-09-30T02:02:46;9.57;;;5.90;;
21636;SDS011;10980;49.596;6.142;2023-09-30T02:06:10;11.00;;;5.93;;
21636;SDS011;10980;49.596;6.142;2023-09-30T02:09:32;10.50;;;5.55;;
21636;SDS011;10980;49.596;6.142;2023-09-30T02:12:55;8.77;;;5.40;;
21636;SDS011;10980;49.596;6.142;2023-09-30T02:16:17;9.32;;;5.65;;
21636;SDS011;10980;49.596;6.142;2023-09-30T02:19:39;11.32;;;5.50;;
21636;SDS011;10980;49.596;6.142;2023-09-30T02:23:02;9.23;;;5.53;;
21636;SDS011;10980;49.596;6.142;2023-09-30T02:26:27;10.10;;;6.18;;
21636;SDS011;10980;49.596;6.142;2023-09-30T02:29:50;8.32;;;5.25;;
21636;SDS011;10980;49.596;6.142;2023-09-30T02:33:12;9.40;;;5.38;;
21636;SDS011;10980;49.596;6.142;2023-09-30T02:36:34;9.25;;;5.50;;
21636;SDS011;10980;49.596;6.142;2023-09-30T02:40:05;9.57;;;5.63;;
21636;SDS011;10980;49.596;6.142;2023-09-30T02:43:32;9.98;;;5.40;;
21636;SDS011;10980;49.596;6.142;2023-09-30T02:46:54;10.23;;;5.88;;
21636;SDS011;10980;49.596;6.142;2023-09-30T02:50:16;11.90;;;5.75;;
21636;SDS011;10980;49.596;6.142;2023-09-30T02:53:38;9.52;;;5.32;;
21636;SDS011;10980;49.596;6.142;2023-09-30T02:57:00;11.13;;;5.72;;
21636;SDS011;10980;49.596;6.142;2023-09-30T03:00:25;11.10;;;5.43;;
21636;SDS011;10980;49.596;6.142;2023-09-30T03:03:48;10.38;;;5.65;;
21636;SDS011;10980;49.596;6.142;2023-09-30T03:07:11;10.38;;;5.20;;
21636;SDS011;10980;49.596;6.142;2023-09-30T03:10:34;10.85;;;5.18;;
21636;SDS011;10980;49.596;6.142;2023-09-30T03:14:01;9.27;;;4.90;;
21636;SDS011;10980;49.596;6.142;2023-09-30T03:17:24;8.07;;;4.85;;
21636;SDS011;10980;49.596;6.142;2023-09-30T03:20:47;8.40;;;4.95;;
21636;SDS011;10980;49.596;6.142;2023-09-30T03:24:12;9.25;;;5.25;;
21636;SDS011;10980;49.596;6.142;2023-09-30T03:27:34;8.63;;;4.72;;
21636;SDS011;10980;49.596;6.142;2023-09-30T03:30:56;8.25;;;5.03;;
21636;SDS011;10980;49.596;6.142;2023-09-30T03:34:18;10.73;;;4.90;;
21636;SDS011;10980;49.596;6.142;2023-09-30T03:37:41;10.73;;;4.93;;
21636;SDS011;10980;49.596;6.142;2023-09-30T03:41:08;9.35;;;4.60;;
21636;SDS011;10980;49.596;6.142;2023-09-30T03:44:30;10.60;;;4.95;;
21636;SDS011;10980;49.596;6.142;2023-09-30T03:47:52;10.17;;;4.80;;
21636;SDS011;10980;49.596;6.142;2023-09-30T03:51:14;8.07;;;4.73;;
21636;SDS011;10980;49.596;6.142;2023-09-30T03:54:40;10.50;;;5.53;;
21636;SDS011;10980;49.596;6.142;2023-09-30T03:58:03;12.93;;;5.00;;
21636;SDS011;10980;49.596;6.142;2023-09-30T04:01:26;9.87;;;4.87;;
21636;SDS011;10980;49.596;6.142;2023-09-30T04:04:48;7.87;;;5.13;;
21636;SDS011;10980;49.596;6.142;2023-09-30T04:08:13;8.10;;;4.60;;
21636;SDS011;10980;49.596;6.142;2023-09-30T04:11:36;8.55;;;4.93;;
21636;SDS011;10980;49.596;6.142;2023-09-30T04:14:59;9.30;;;5.28;;
21636;SDS011;10980;49.596;6.142;2023-09-30T04:18:22;8.43;;;5.13;;
21636;SDS011;10980;49.596;6.142;2023-09-30T04:21:44;8.52;;;4.82;;
21636;SDS011;10980;49.596;6.142;2023-09-30T04:25:06;8.85;;;5.10;;
21636;SDS011;10980;49.596;6.142;2023-09-30T04:28:32;10.15;;;5.00;;
21636;SDS011;10980;49.596;6.142;2023-09-30T04:31:56;9.32;;;5.57;;
21636;SDS011;10980;49.596;6.142;2023-09-30T04:35:18;10.85;;;5.45;;
21636;SDS011;10980;49.596;6.142;2023-09-30T04:38:40;9.00;;;5.05;;
21636;SDS011;10980;49.596;6.142;2023-09-30T04:42:02;8.38;;;4.50;;
21636;SDS011;10980;49.596;6.142;2023-09-30T04:45:25;8.68;;;4.57;;
21636;SDS011;10980;49.596;6.142;2023-09-30T04:48:48;8.30;;;4.60;;
21636;SDS011;10980;49.596;6.142;2023-09-30T04:52:13;8.38;;;4.85;;
21636;SDS011;10980;49.596;6.142;2023-09-30T04:55:35;8.95;;;4.88;;
21636;SDS011;10980;49.596;6.142;2023-09-30T04:58:59;8.02;;;4.80;;
21636;SDS011;10980;49.596;6.142;2023-09-30T05:02:21;8.95;;;4.72;;
21636;SDS011;10980;49.596;6.142;2023-09-30T05:05:44;9.35;;;4.65;;
21636;SDS011;10980;49.596;6.142;2023-09-30T05:09:06;7.85;;;4.22;;
21636;SDS011;10980;49.596;6.142;2023-09-30T05:12:28;9.18;;;4.50;;
21636;SDS011;10980;49.596;6.142;2023-09-30T05:15:50;11.30;;;5.85;;
21636;SDS011;10980;49.596;6.142;2023-09-30T05:19:13;12.48;;;6.07;;
21636;SDS011;10980;49.596;6.142;2023-09-30T05:22:35;12.65;;;6.65;;
21636;SDS011;10980;49.596;6.142;2023-09-30T05:25:57;12.13;;;6.22;;
21636;SDS011;10980;49.596;6.142;2023-09-30T05:29:19;13.65;;;6.70;;
21636;SDS011;10980;49.596;6.142;2023-09-30T05:32:41;10.50;;;5.50;;
21636;SDS011;10980;49.596;6.142;2023-09-30T05:36:03;11.15;;;5.53;;
21636;SDS011;10980;49.596;6.142;2023-09-30T05:39:26;12.27;;;6.18;;
21636;SDS011;10980;49.596;6.142;2023-09-30T05:42:49;15.93;;;6.57;;
21636;SDS011;10980;49.596;6.142;2023-09-30T05:46:16;12.95;;;6.45;;
21636;SDS011;10980;49.596;6.142;2023-09-30T05:49:39;14.07;;;5.97;;
21636;SDS011;10980;49.596;6.142;2023-09-30T05:53:01;14.80;;;6.07;;
21636;SDS011;10980;49.596;6.142;2023-09-30T05:56:23;15.80;;;7.32;;
21636;SDS011;10980;49.596;6.142;2023-09-30T05:59:44;17.30;;;7.50;;
21636;SDS011;10980;49.596;6.142;2023-09-30T06:03:07;20.67;;;7.10;;
21636;SDS011;10980;49.596;6.142;2023-09-30T06:06:32;16.55;;;7.30;;
21636;SDS011;10980;49.596;6.142;2023-09-30T06:09:54;18.52;;;6.82;;
21636;SDS011;10980;49.596;6.142;2023-09-30T06:13:16;16.95;;;7.15;;
21636;SDS011;10980;49.596;6.142;2023-09-30T06:16:38;17.17;;;7.18;;
21636;SDS011;10980;49.596;6.142;2023-09-30T06:20:00;13.27;;;6.13;;
21636;SDS011;10980;49.596;6.142;2023-09-30T06:23:29;15.35;;;6.95;;
21636;SDS011;10980;49.596;6.142;2023-09-30T06:26:52;17.17;;;6.68;;
21636;SDS011;10980;49.596;6.142;2023-09-30T06:30:15;15.90;;;7.18;;
21636;SDS011;10980;49.596;6.142;2023-09-30T06:33:39;16.35;;;7.03;;
21636;SDS011;10980;49.596;6.142;2023-09-30T06:37:01;16.05;;;8.07;;
21636;SDS011;10980;49.596;6.142;2023-09-30T06:40:23;16.67;;;7.35;;
21636;SDS011;10980;49.596;6.142;2023-09-30T06:43:45;12.75;;;6.32;;
21636;SDS011;10980;49.596;6.142;2023-09-30T06:47:08;15.93;;;6.57;;
21636;SDS011;10980;49.596;6.142;2023-09-30T06:50:34;15.80;;;7.13;;
21636;SDS011;10980;49.596;6.142;2023-09-30T06:53:56;16.92;;;7.53;;
21636;SDS011;10980;49.596;6.142;2023-09-30T06:57:18;18.40;;;7.30;;
21636;SDS011;10980;49.596;6.142;2023-09-30T07:00:43;12.70;;;6.20;;
21636;SDS011;10980;49.596;6.142;2023-09-30T07:04:07;15.15;;;6.60;;
21636;SDS011;10980;49.596;6.142;2023-09-30T07:07:29;11.48;;;6.35;;
21636;SDS011;10980;49.596;6.142;2023-09-30T07:10:50;14.00;;;6.63;;
21636;SDS011;10980;49.596;6.142;2023-09-30T07:14:14;9.27;;;4.97;;
21636;SDS011;10980;49.596;6.142;2023-09-30T07:17:36;11.88;;;5.40;;
21636;SDS011;10980;49.596;6.142;2023-09-30T07:21:02;13.70;;;6.18;;
21636;SDS011;10980;49.596;6.142;2023-09-30T07:24:24;14.65;;;6.88;;
21636;SDS011;10980;49.596;6.142;2023-09-30T07:27:54;16.48;;;6.53;;
21636;SDS011;10980;49.596;6.142;2023-09-30T07:31:16;14.27;;;5.95;;
21636;SDS011;10980;49.596;6.142;2023-09-30T07:34:38;12.57;;;6.53;;
21636;SDS011;10980;49.596;6.142;2023-09-30T07:38:00;12.63;;;5.70;;
21636;SDS011;10980;49.596;6.142;2023-09-30T07:41:22;13.85;;;5.95;;
21636;SDS011;10980;49.596;6.142;2023-09-30T07:44:44;11.85;;;5.75;;
21636;SDS011;10980;49.596;6.142;2023-09-30T07:48:09;13.93;;;5.93;;
21636;SDS011;10980;49.596;6.142;2023-09-30T07:51:31;9.50;;;5.85;;
21636;SDS011;10980;49.596;6.142;2023-09-30T07:54:53;10.90;;;5.80;;
21636;SDS011;10980;49.596;6.142;2023-09-30T07:58:15;10.98;;;6.53;;
21636;SDS011;10980;49.596;6.142;2023-09-30T08:01:37;13.00;;;6.35;;
21636;SDS011;10980;49.596;6.142;2023-09-30T08:04:59;13.35;;;6.60;;
21636;SDS011;10980;49.596;6.142;2023-09-30T08:08:21;10.52;;;6.85;;
21636;SDS011;10980;49.596;6.142;2023-09-30T08:11:45;14.13;;;6.22;;
21636;SDS011;10980;49.596;6.142;2023-09-30T08:15:07;12.35;;;6.18;;
21636;SDS011;10980;49.596;6.142;2023-09-30T08:18:33;10.55;;;5.95;;
21636;SDS011;10980;49.596;6.142;2023-09-30T08:21:55;10.68;;;6.10;;
21636;SDS011;10980;49.596;6.142;2023-09-30T08:25:18;12.15;;;6.30;;
21636;SDS011;10980;49.596;6.142;2023-09-30T08:28:40;11.18;;;5.50;;
21636;SDS011;10980;49.596;6.142;2023-09-30T08:32:02;12.13;;;5.47;;
21636;SDS011;10980;49.596;6.142;2023-09-30T08:35:24;8.05;;;4.45;;
21636;SDS011;10980;49.596;6.142;2023-09-30T08:38:46;11.40;;;4.50;;
21636;SDS011;10980;49.596;6.142;2023-09-30T08:42:09;8.23;;;3.38;;
21636;SDS011;10980;49.596;6.142;2023-09-30T08:45:35;7.60;;;3.78;;
21636;SDS011;10980;49.596;6.142;2023-09-30T08:49:10;5.55;;;3.42;;
21636;SDS011;10980;49.596;6.142;2023-09-30T08:52:37;8.27;;;3.53;;
21636;SDS011;10980;49.596;6.142;2023-09-30T08:56:01;6.20;;;2.72;;
21636;SDS011;10980;49.596;6.142;2023-09-30T08:59:29;7.22;;;3.05;;
21636;SDS011;10980;49.596;6.142;2023-09-30T09:02:53;4.43;;;2.05;;
21636;SDS011;10980;49.596;6.142;2023-09-30T09:06:15;7.13;;;2.72;;
21636;SDS011;10980;49.596;6.142;2023-09-30T09:09:38;7.32;;;2.67;;
21636;SDS011;10980;49.596;6.142;2023-09-30T09:13:00;6.55;;;2.55;;
21636;SDS011;10980;49.596;6.142;2023-09-30T09:16:22;6.43;;;2.70;;
21636;SDS011;10980;49.596;6.142;2023-09-30T09:19:58;4.85;;;2.30;;
21636;SDS011;10980;49.596;6.142;2023-09-30T09:23:21;6.15;;;2.15;;
21636;SDS011;10980;49.596;6.142;2023-09-30T09:26:43;6.15;;;2.72;;
21636;SDS011;10980;49.596;6.142;2023-09-30T09:30:15;5.55;;;2.20;;
21636;SDS011;10980;49.596;6.142;2023-09-30T09:33:45;6.30;;;2.40;;
21636;SDS011;10980;49.596;6.142;2023-09-30T09:37:20;7.28;;;2.30;;
21636;SDS011;10980;49.596;6.142;2023-09-30T09:40:43;8.38;;;2.40;;
21636;SDS011;10980;49.596;6.142;2023-09-30T09:44:05;5.68;;;2.55;;
21636;SDS011;10980;49.596;6.142;2023-09-30T09:47:28;5.85;;;2.42;;
21636;SDS011;10980;49.596;6.142;2023-09-30T09:50:53;4.75;;;2.28;;
21636;SDS011;10980;49.596;6.142;2023-09-30T09:54:15;5.80;;;2.60;;
21636;SDS011;10980;49.596;6.142;2023-09-30T09:57:38;5.07;;;2.28;;
21636;SDS011;10980;49.596;6.142;2023-09-30T10:01:02;5.75;;;2.22;;
21636;SDS011;10980;49.596;6.142;2023-09-30T10:04:27;6.85;;;2.35;;
21636;SDS011;10980;49.596;6.142;2023-09-30T10:11:21;6.68;;;2.15;;
21636;SDS011;10980;49.596;6.142;2023-09-30T10:14:43;8.05;;;2.78;;
21636;SDS011;10980;49.596;6.142;2023-09-30T10:21:36;7.93;;;2.13;;
21636;SDS011;10980;49.596;6.142;2023-09-30T10:24:59;6.63;;;2.72;;
21636;SDS011;10980;49.596;6.142;2023-09-30T10:28:36;6.72;;;2.90;;
21636;SDS011;10980;49.596;6.142;2023-09-30T10:32:04;6.80;;;2.53;;
21636;SDS011;10980;49.596;6.142;2023-09-30T10:38:48;6.10;;;2.55;;
21636;SDS011;10980;49.596;6.142;2023-09-30T10:42:10;7.05;;;2.72;;
21636;SDS011;10980;49.596;6.142;2023-09-30T10:49:49;6.82;;;2.53;;
21636;SDS011;10980;49.596;6.142;2023-09-30T10:53:11;7.35;;;2.20;;
21636;SDS011;10980;49.596;6.142;2023-09-30T10:56:33;8.45;;;2.72;;
21636;SDS011;10980;49.596;6.142;2023-09-30T11:00:11;7.90;;;2.53;;
21636;SDS011;10980;49.596;6.142;2023-09-30T11:03:35;6.28;;;2.42;;
21636;SDS011;10980;49.596;6.142;2023-09-30T11:06:59;9.23;;;2.72;;
21636;SDS011;10980;49.596;6.142;2023-09-30T11:10:23;6.93;;;2.95;;
21636;SDS011;10980;49.596;6.142;2023-09-30T11:13:48;5.95;;;2.50;;
21636;SDS011;10980;49.596;6.142;2023-09-30T11:17:10;7.55;;;2.47;;
21636;SDS011;10980;49.596;6.142;2023-09-30T11:20:32;5.50;;;1.98;;
21636;SDS011;10980;49.596;6.142;2023-09-30T11:23:55;6.35;;;2.47;;
21636;SDS011;10980;49.596;6.142;2023-09-30T11:27:23;8.23;;;2.70;;
21636;SDS011;10980;49.596;6.142;2023-09-30T11:30:53;9.27;;;3.03;;
21636;SDS011;10980;49.596;6.142;2023-09-30T11:34:15;7.88;;;2.60;;
21636;SDS011;10980;49.596;6.142;2023-09-30T11:37:40;6.63;;;2.45;;
21636;SDS011;10980;49.596;6.142;2023-09-30T11:41:06;7.80;;;2.55;;
21636;SDS011;10980;49.596;6.142;2023-09-30T11:44:28;7.97;;;2.83;;
21636;SDS011;10980;49.596;6.142;2023-09-30T11:47:52;7.10;;;2.72;;
21636;SDS011;10980;49.596;6.142;2023-09-30T11:51:14;8.23;;;2.60;;
21636;SDS011;10980;49.596;6.142;2023-09-30T11:54:37;6.43;;;2.63;;
21636;SDS011;10980;49.596;6.142;2023-09-30T11:58:08;5.85;;;2.45;;
21636;SDS011;10980;49.596;6.142;2023-09-30T12:01:31;7.22;;;2.15;;
21636;SDS011;10980;49.596;6.142;2023-09-30T12:04:53;5.50;;;2.30;;
21636;SDS011;10980;49.596;6.142;2023-09-30T12:08:15;8.80;;;2.40;;
21636;SDS011;10980;49.596;6.142;2023-09-30T12:11:37;7.20;;;2.60;;
21636;SDS011;10980;49.596;6.142;2023-09-30T12:14:59;4.80;;;2.08;;
21636;SDS011;10980;49.596;6.142;2023-09-30T12:18:21;7.53;;;2.45;;
21636;SDS011;10980;49.596;6.142;2023-09-30T12:21:46;6.60;;;2.80;;
21636;SDS011;10980;49.596;6.142;2023-09-30T12:25:09;7.10;;;2.67;;
21636;SDS011;10980;49.596;6.142;2023-09-30T12:28:35;5.70;;;2.33;;
21636;SDS011;10980;49.596;6.142;2023-09-30T12:31:57;5.88;;;2.45;;
21636;SDS011;10980;49.596;6.142;2023-09-30T12:35:20;5.30;;;2.42;;
21636;SDS011;10980;49.596;6.142;2023-09-30T12:38:42;7.95;;;2.20;;
21636;SDS011;10980;49.596;6.142;2023-09-30T12:42:05;6.10;;;2.38;;
21636;SDS011;10980;49.596;6.142;2023-09-30T12:45:30;5.13;;;2.17;;
21636;SDS011;10980;49.596;6.142;2023-09-30T12:48:52;5.28;;;2.40;;
21636;SDS011;10980;49.596;6.142;2023-09-30T12:52:15;7.30;;;2.33;;
21636;SDS011;10980;49.596;6.142;2023-09-30T12:55:39;6.93;;;2.40;;
21636;SDS011;10980;49.596;6.142;2023-09-30T12:59:03;5.10;;;2.08;;
21636;SDS011;10980;49.596;6.142;2023-09-30T13:02:28;5.50;;;2.03;;
21636;SDS011;10980;49.596;6.142;2023-09-30T13:05:50;6.07;;;2.33;;
21636;SDS011;10980;49.596;6.142;2023-09-30T13:09:12;4.13;;;1.70;;
21636;SDS011;10980;49.596;6.142;2023-09-30T13:12:34;6.88;;;2.22;;
21636;SDS011;10980;49.596;6.142;2023-09-30T13:15:57;5.07;;;2.13;;
21636;SDS011;10980;49.596;6.142;2023-09-30T13:19:19;5.40;;;2.17;;
21636;SDS011;10980;49.596;6.142;2023-09-30T13:22:44;5.18;;;2.40;;
21636;SDS011;10980;49.596;6.142;2023-09-30T13:26:07;5.65;;;2.28;;
21636;SDS011;10980;49.596;6.142;2023-09-30T13:29:29;7.18;;;2.50;;
21636;SDS011;10980;49.596;6.142;2023-09-30T13:32:50;6.18;;;2.53;;
21636;SDS011;10980;49.596;6.142;2023-09-30T13:36:13;6.13;;;2.00;;
21636;SDS011;10980;49.596;6.142;2023-09-30T13:39:35;6.70;;;2.63;;
21636;SDS011;10980;49.596;6.142;2023-09-30T13:42:58;6.53;;;2.55;;
21636;SDS011;10980;49.596;6.142;2023-09-30T13:46:21;8.95;;;2.50;;
21636;SDS011;10980;49.596;6.142;2023-09-30T13:49:57;6.63;;;3.22;;
21636;SDS011;10980;49.596;6.142;2023-09-30T13:53:26;8.02;;;2.67;;
21636;SDS011;10980;49.596;6.142;2023-09-30T13:56:48;6.85;;;2.38;;
21636;SDS011;10980;49.596;6.142;2023-09-30T14:00:10;8.88;;;2.83;;
21636;SDS011;10980;49.596;6.142;2023-09-30T14:03:33;8.35;;;2.78;;
21636;SDS011;10980;49.596;6.142;2023-09-30T14:06:56;4.75;;;2.15;;
21636;SDS011;10980;49.596;6.142;2023-09-30T14:10:21;7.32;;;2.58;;
21636;SDS011;10980;49.596;6.142;2023-09-30T14:13:45;7.18;;;2.45;;
21636;SDS011;10980;49.596;6.142;2023-09-30T14:17:07;6.68;;;2.60;;
21636;SDS011;10980;49.596;6.142;2023-09-30T14:20:31;7.15;;;2.53;;
21636;SDS011;10980;49.596;6.142;2023-09-30T14:23:55;6.55;;;2.70;;
21636;SDS011;10980;49.596;6.142;2023-09-30T14:27:17;7.38;;;2.67;;
21636;SDS011;10980;49.596;6.142;2023-09-30T14:30:41;5.78;;;2.45;;
21636;SDS011;10980;49.596;6.142;2023-09-30T14:34:03;6.60;;;2.80;;
21636;SDS011;10980;49.596;6.142;2023-09-30T14:37:26;6.10;;;2.33;;
21636;SDS011;10980;49.596;6.142;2023-09-30T14:40:50;7.25;;;2.75;;
21636;SDS011;10980;49.596;6.142;2023-09-30T14:44:12;7.45;;;2.60;;
21636;SDS011;10980;49.596;6.142;2023-09-30T14:47:34;4.88;;;2.38;;
21636;SDS011;10980;49.596;6.142;2023-09-30T14:50:57;7.93;;;2.60;;
21636;SDS011;10980;49.596;6.142;2023-09-30T14:54:19;6.63;;;2.47;;
21636;SDS011;10980;49.596;6.142;2023-09-30T14:57:42;7.18;;;2.80;;
21636;SDS011;10980;49.596;6.142;2023-09-30T15:01:22;6.90;;;2.58;;
21636;SDS011;10980;49.596;6.142;2023-09-30T15:04:52;6.82;;;2.60;;
21636;SDS011;10980;49.596;6.142;2023-09-30T15:08:14;6.82;;;2.40;;
21636;SDS011;10980;49.596;6.142;2023-09-30T15:11:39;7.47;;;2.50;;
21636;SDS011;10980;49.596;6.142;2023-09-30T15:18:30;12.35;;;2.85;;
21636;SDS011;10980;49.596;6.142;2023-09-30T15:21:53;5.47;;;2.45;;
21636;SDS011;10980;49.596;6.142;2023-09-30T15:25:16;5.47;;;2.50;;
21636;SDS011;10980;49.596;6.142;2023-09-30T15:28:41;6.82;;;2.55;;
21636;SDS011;10980;49.596;6.142;2023-09-30T15:32:04;7.63;;;2.67;;
21636;SDS011;10980;49.596;6.142;2023-09-30T15:35:27;6.15;;;2.40;;
21636;SDS011;10980;49.596;6.142;2023-09-30T15:38:53;7.13;;;2.72;;
21636;SDS011;10980;49.596;6.142;2023-09-30T15:42:16;5.68;;;2.40;;
21636;SDS011;10980;49.596;6.142;2023-09-30T15:45:41;6.18;;;2.90;;
21636;SDS011;10980;49.596;6.142;2023-09-30T15:49:08;9.13;;;2.35;;
21636;SDS011;10980;49.596;6.142;2023-09-30T15:52:30;8.30;;;3.05;;
21636;SDS011;10980;49.596;6.142;2023-09-30T15:55:52;8.05;;;2.88;;
21636;SDS011;10980;49.596;6.142;2023-09-30T15:59:14;7.78;;;2.95;;
21636;SDS011;10980;49.596;6.142;2023-09-30T16:02:37;6.68;;;2.40;;
21636;SDS011;10980;49.596;6.142;2023-09-30T16:06:03;6.07;;;1.75;;
21636;SDS011;10980;49.596;6.142;2023-09-30T16:09:28;5.78;;;2.35;;
21636;SDS011;10980;49.596;6.142;2023-09-30T16:12:50;6.55;;;2.35;;
21636;SDS011;10980;49.596;6.142;2023-09-30T16:16:12;6.68;;;2.72;;
21636;SDS011;10980;49.596;6.142;2023-09-30T16:19:38;6.88;;;2.35;;
21636;SDS011;10980;49.596;6.142;2023-09-30T16:23:01;6.20;;;2.40;;
21636;SDS011;10980;49.596;6.142;2023-09-30T16:26:25;6.13;;;2.22;;
21636;SDS011;10980;49.596;6.142;2023-09-30T16:29:47;5.63;;;2.40;;
21636;SDS011;10980;49.596;6.142;2023-09-30T16:33:09;8.10;;;2.65;;
21636;SDS011;10980;49.596;6.142;2023-09-30T16:36:31;6.80;;;2.45;;
21636;SDS011;10980;49.596;6.142;2023-09-30T16:39:59;8.07;;;3.08;;
21636;SDS011;10980;49.596;6.142;2023-09-30T16:43:23;6.45;;;2.50;;
21636;SDS011;10980;49.596;6.142;2023-09-30T16:46:49;7.47;;;2.80;;
21636;SDS011;10980;49.596;6.142;2023-09-30T16:50:11;7.85;;;2.92;;
21636;SDS011;10980;49.596;6.142;2023-09-30T16:53:33;7.28;;;2.67;;
21636;SDS011;10980;49.596;6.142;2023-09-30T16:56:59;5.70;;;2.28;;
21636;SDS011;10980;49.596;6.142;2023-09-30T17:00:21;6.95;;;3.10;;
21636;SDS011;10980;49.596;6.142;2023-09-30T17:03:43;5.80;;;2.90;;
21636;SDS011;10980;49.596;6.142;2023-09-30T17:07:05;9.82;;;3.10;;
21636;SDS011;10980;49.596;6.142;2023-09-30T17:10:28;8.55;;;3.20;;
21636;SDS011;10980;49.596;6.142;2023-09-30T17:13:50;6.43;;;2.85;;
21636;SDS011;10980;49.596;6.142;2023-09-30T17:17:12;7.95;;;2.80;;
21636;SDS011;10980;49.596;6.142;2023-09-30T17:20:35;9.88;;;3.95;;
21636;SDS011;10980;49.596;6.142;2023-09-30T17:24:01;8.55;;;3.40;;
21636;SDS011;10980;49.596;6.142;2023-09-30T17:27:24;7.20;;;2.67;;
21636;SDS011;10980;49.596;6.142;2023-09-30T17:30:46;8.57;;;3.63;;
21636;SDS011;10980;49.596;6.142;2023-09-30T17:34:08;8.45;;;3.40;;
21636;SDS011;10980;49.596;6.142;2023-09-30T17:37:36;9.70;;;3.30;;
21636;SDS011;10980;49.596;6.142;2023-09-30T17:40:59;9.43;;;3.30;;
21636;SDS011;10980;49.596;6.142;2023-09-30T17:44:28;8.35;;;3.50;;
21636;SDS011;10980;49.596;6.142;2023-09-30T17:47:51;10.38;;;4.53;;
21636;SDS011;10980;49.596;6.142;2023-09-30T17:51:15;12.90;;;5.88;;
21636;SDS011;10980;49.596;6.142;2023-09-30T17:54:49;11.07;;;5.05;;
21636;SDS011;10980;49.596;6.142;2023-09-30T17:58:12;14.25;;;5.68;;
21636;SDS011;10980;49.596;6.142;2023-09-30T18:01:34;12.93;;;5.45;;
21636;SDS011;10980;49.596;6.142;2023-09-30T18:04:58;11.95;;;5.68;;
21636;SDS011;10980;49.596;6.142;2023-09-30T18:08:20;10.25;;;5.00;;
21636;SDS011;10980;49.596;6.142;2023-09-30T18:11:44;10.02;;;4.55;;
21636;SDS011;10980;49.596;6.142;2023-09-30T18:15:06;10.30;;;4.47;;
21636;SDS011;10980;49.596;6.142;2023-09-30T18:18:29;11.00;;;4.40;;
21636;SDS011;10980;49.596;6.142;2023-09-30T18:21:54;8.35;;;4.00;;
21636;SDS011;10980;49.596;6.142;2023-09-30T18:25:16;8.65;;;4.60;;
21636;SDS011;10980;49.596;6.142;2023-09-30T18:28:39;8.90;;;4.03;;
21636;SDS011;10980;49.596;6.142;2023-09-30T18:32:02;12.18;;;4.53;;
21636;SDS011;10980;49.596;6.142;2023-09-30T18:35:24;7.97;;;3.55;;
21636;SDS011;10980;49.596;6.142;2023-09-30T18:38:46;10.27;;;4.05;;
21636;SDS011;10980;49.596;6.142;2023-09-30T18:42:10;7.97;;;4.05;;
21636;SDS011;10980;49.596;6.142;2023-09-30T18:45:32;10.48;;;4.35;;
21636;SDS011;10980;49.596;6.142;2023-09-30T18:48:54;8.93;;;4.40;;
21636;SDS011;10980;49.596;6.142;2023-09-30T18:52:16;10.35;;;4.55;;
21636;SDS011;10980;49.596;6.142;2023-09-30T18:55:41;10.75;;;6.18;;
21636;SDS011;10980;49.596;6.142;2023-09-30T18:59:06;11.52;;;5.70;;
21636;SDS011;10980;49.596;6.142;2023-09-30T19:02:30;11.50;;;5.82;;
21636;SDS011;10980;49.596;6.142;2023-09-30T19:05:52;10.27;;;5.78;;
21636;SDS011;10980;49.596;6.142;2023-09-30T19:09:17;8.90;;;4.88;;
21636;SDS011;10980;49.596;6.142;2023-09-30T19:12:39;12.07;;;4.85;;
21636;SDS011;10980;49.596;6.142;2023-09-30T19:16:00;10.05;;;4.90;;
21636;SDS011;10980;49.596;6.142;2023-09-30T19:19:23;10.23;;;5.55;;
21636;SDS011;10980;49.596;6.142;2023-09-30T19:22:48;10.80;;;4.97;;
21636;SDS011;10980;49.596;6.142;2023-09-30T19:26:12;10.35;;;5.38;;
21636;SDS011;10980;49.596;6.142;2023-09-30T19:29:36;10.68;;;5.05;;
21636;SDS011;10980;49.596;6.142;2023-09-30T19:32:58;12.77;;;4.88;;
21636;SDS011;10980;49.596;6.142;2023-09-30T19:36:20;15.70;;;5.05;;
21636;SDS011;10980;49.596;6.142;2023-09-30T19:39:42;18.05;;;8.27;;
21636;SDS011;10980;49.596;6.142;2023-09-30T19:43:05;13.63;;;7.13;;
21636;SDS011;10980;49.596;6.142;2023-09-30T19:46:27;9.52;;;5.72;;
21636;SDS011;10980;49.596;6.142;2023-09-30T19:49:50;10.32;;;4.88;;
21636;SDS011;10980;49.596;6.142;2023-09-30T19:53:12;10.77;;;4.55;;
21636;SDS011;10980;49.596;6.142;2023-09-30T19:56:36;8.60;;;4.50;;
21636;SDS011;10980;49.596;6.142;2023-09-30T20:00:00;10.40;;;5.03;;
21636;SDS011;10980;49.596;6.142;2023-09-30T20:03:24;13.85;;;5.45;;
21636;SDS011;10980;49.596;6.142;2023-09-30T20:06:46;10.38;;;4.90;;
21636;SDS011;10980;49.596;6.142;2023-09-30T20:10:13;7.82;;;4.50;;
21636;SDS011;10980;49.596;6.142;2023-09-30T20:13:35;8.88;;;4.45;;
21636;SDS011;10980;49.596;6.142;2023-09-30T20:16:57;9.10;;;4.50;;
21636;SDS011;10980;49.596;6.142;2023-09-30T20:20:21;9.27;;;4.63;;
21636;SDS011;10980;49.596;6.142;2023-09-30T20:23:43;10.98;;;4.90;;
21636;SDS011;10980;49.596;6.142;2023-09-30T20:27:06;10.45;;;4.95;;
21636;SDS011;10980;49.596;6.142;2023-09-30T20:30:31;10.63;;;4.35;;
21636;SDS011;10980;49.596;6.142;2023-09-30T20:33:55;10.23;;;5.13;;
21636;SDS011;10980;49.596;6.142;2023-09-30T20:37:16;8.80;;;4.93;;